createdAt,value
2019-04-07T00:02:28.456Z,33.70
2019-04-07T00:06:34.022Z,23.70
2019-04-07T00:10:38.784Z,27.40
2019-04-07T00:14:43.754Z,30.27
2019-04-07T00:18:49.513Z,25.77
2019-04-07T00:22:55.256Z,31.27
2019-04-07T00:27:00.223Z,24.47
2019-04-07T00:31:05.882Z,21.27
2019-04-07T00:35:21.944Z,24.12
2019-04-07T00:39:18.045Z,31.33
2019-04-07T00:43:22.901Z,26.82
2019-04-07T00:47:27.549Z,26.00
2019-04-07T00:51:33.245Z,26.82
2019-04-07T00:55:38.590Z,28.73
2019-04-07T00:59:45.211Z,31.37
2019-04-07T01:03:50.327Z,27.37
2019-04-07T01:07:55.260Z,24.60
2019-04-07T01:12:00.779Z,26.70
2019-04-07T01:16:08.154Z,22.40
2019-04-07T01:20:14.043Z,29.10
2019-04-07T01:24:18.873Z,23.95
2019-04-07T01:28:23.917Z,30.75
2019-04-07T01:32:29.113Z,29.80
2019-04-07T01:36:34.232Z,22.15
2019-04-07T01:40:41.318Z,21.30
2019-04-07T01:45:15.516Z,24.77
2019-04-07T01:49:41.235Z,21.48
2019-04-07T01:54:05.306Z,25.20
2019-04-07T01:58:18.477Z,26.30
2019-04-07T02:02:49.958Z,28.52
2019-04-07T02:07:33.747Z,29.42
2019-04-07T02:12:03.763Z,24.50
2019-04-07T02:16:16.893Z,28.07
2019-04-07T02:21:01.032Z,29.98
2019-04-07T02:25:19.947Z,32.95
2019-04-07T02:29:51.188Z,23.20
2019-04-07T02:34:21.994Z,32.10
2019-04-07T02:38:33.471Z,22.30
2019-04-07T02:42:44.481Z,26.80
2019-04-07T02:46:58.865Z,25.23
2019-04-07T02:51:31.950Z,26.05
2019-04-07T02:55:48.437Z,23.10
2019-04-07T03:00:22.218Z,25.80
2019-04-07T03:04:37.156Z,28.67
2019-04-07T03:08:53.991Z,22.73
2019-04-07T03:13:13.206Z,33.60
2019-04-07T03:17:37.633Z,26.60
2019-04-07T03:21:48.297Z,25.72
2019-04-07T03:26:07.979Z,27.40
2019-04-07T03:30:28.442Z,23.52
2019-04-07T03:34:48.936Z,25.17
2019-04-07T03:39:22.266Z,27.93
2019-04-07T03:43:47.115Z,26.93
2019-04-07T03:48:06.808Z,26.30
2019-04-07T03:52:32.552Z,25.02
2019-04-07T03:56:56.397Z,26.65
2019-04-07T04:01:35.245Z,27.07
2019-04-07T04:05:57.320Z,27.93
2019-04-07T04:10:11.237Z,28.80
2019-04-07T04:14:33.429Z,29.23
2019-04-07T04:18:38.237Z,27.85
2019-04-07T04:22:43.150Z,28.60
2019-04-07T04:26:47.923Z,32.15
2019-04-07T04:30:53.796Z,27.45
2019-04-07T04:34:59.496Z,28.70
2019-04-07T04:39:17.248Z,32.50
2019-04-07T04:43:21.474Z,31.48
2019-04-07T04:47:27.568Z,32.55
2019-04-07T04:51:36.312Z,28.25
2019-04-07T04:55:39.238Z,30.23
2019-04-07T04:59:44.324Z,28.40
2019-04-07T05:03:49.406Z,34.48
2019-04-07T05:08:00.854Z,32.70
2019-04-07T05:12:00.823Z,32.88
2019-04-07T05:16:05.740Z,35.88
2019-04-07T05:20:10.938Z,30.45
2019-04-07T05:24:15.829Z,35.55
2019-04-07T05:28:21.237Z,31.50
2019-04-07T05:32:26.802Z,31.85
2019-04-07T05:36:32.459Z,37.70
2019-04-07T05:40:37.217Z,30.70
2019-04-07T05:44:42.195Z,29.35
2019-04-07T05:48:47.513Z,30.25
2019-04-07T05:52:53.212Z,36.60
2019-04-07T05:57:01.158Z,32.60
2019-04-07T06:01:04.388Z,26.50
2019-04-07T06:05:09.802Z,34.88
2019-04-07T06:09:15.866Z,31.68
2019-04-07T06:13:21.596Z,24.77
2019-04-07T06:17:27.527Z,33.25
2019-04-07T06:21:33.379Z,32.20
2019-04-07T06:25:41.724Z,32.73
2019-04-07T06:29:44.651Z,30.70
2019-04-07T06:33:49.938Z,32.90
2019-04-07T06:37:57.655Z,32.48
2019-04-07T06:42:03.401Z,34.38
2019-04-07T06:46:40.358Z,30.85
2019-04-07T06:51:06.181Z,35.38
2019-04-07T06:55:32.858Z,31.42
2019-04-07T06:59:58.735Z,37.83
2019-04-07T07:04:17.993Z,36.28
2019-04-07T07:08:42.643Z,32.60
2019-04-07T07:13:11.642Z,60.63
2019-04-07T07:17:40.214Z,38.30
2019-04-07T07:22:16.147Z,33.98
2019-04-07T07:26:21.433Z,40.55
2019-04-07T07:30:27.139Z,45.78
2019-04-07T07:34:32.711Z,29.30
2019-04-07T07:38:37.378Z,44.67
2019-04-07T07:42:42.258Z,36.63
2019-04-07T07:46:50.408Z,30.97
2019-04-07T07:50:55.843Z,30.20
2019-04-07T07:55:02.757Z,26.45
2019-04-07T07:59:07.762Z,29.10
2019-04-07T08:03:13.018Z,26.87
2019-04-07T08:07:18.249Z,24.80
2019-04-07T08:11:23.992Z,24.92
2019-04-07T08:15:32.316Z,24.02
2019-04-07T08:19:35.334Z,23.57
2019-04-07T08:23:43.073Z,22.50
2019-04-07T08:27:46.468Z,23.98
2019-04-07T08:31:54.960Z,24.77
2019-04-07T08:35:58.026Z,26.23
2019-04-07T08:40:07.083Z,25.40
2019-04-07T08:44:09.467Z,20.75
2019-04-07T08:48:18.234Z,19.98
2019-04-07T08:52:21.146Z,18.10
2019-04-07T08:56:26.865Z,18.12
2019-04-07T09:00:34.637Z,17.02
2019-04-07T09:04:51.238Z,19.20
2019-04-07T09:08:55.003Z,19.57
2019-04-07T09:13:02.997Z,17.92
2019-04-07T09:17:32.250Z,17.77
2019-04-07T09:21:41.403Z,22.30
2019-04-07T09:34:40.378Z,16.00
2019-04-07T09:39:17.920Z,18.73
2019-04-07T09:43:41.039Z,16.97
2019-04-07T09:48:06.468Z,17.77
2019-04-07T09:52:30.575Z,17.92
2019-04-07T09:56:48.418Z,19.25
2019-04-07T10:01:12.126Z,23.18
2019-04-07T10:05:44.689Z,18.48
2019-04-07T10:10:07.650Z,18.32
2019-04-07T10:14:23.774Z,14.55
2019-04-07T10:18:49.260Z,16.75
2019-04-07T10:23:16.249Z,17.85
2019-04-07T10:27:35.480Z,18.20
2019-04-07T10:31:49.323Z,22.42
2019-04-07T10:36:11.929Z,17.15
2019-04-07T10:40:40.111Z,16.42
2019-04-07T10:45:11.934Z,18.50
2019-04-07T10:49:49.018Z,16.87
2019-04-07T10:53:59.822Z,19.17
2019-04-07T10:58:12.215Z,21.00
2019-04-07T11:02:44.694Z,15.73
2019-04-07T11:07:03.079Z,19.73
2019-04-07T11:11:33.593Z,19.55
2019-04-07T11:15:55.138Z,17.67
2019-04-07T11:20:27.913Z,20.48
2019-04-07T11:24:55.775Z,17.65
2019-04-07T11:29:16.546Z,15.43
2019-04-07T11:33:42.715Z,19.37
2019-04-07T11:38:21.234Z,16.70
2019-04-07T11:42:42.214Z,15.75
2019-04-07T11:46:58.019Z,17.12
2019-04-07T11:51:26.026Z,18.77
2019-04-07T11:55:43.186Z,18.57
2019-04-07T12:00:06.383Z,20.40
2019-04-07T12:04:24.089Z,24.55
2019-04-07T12:08:50.102Z,17.73
2019-04-07T12:13:17.357Z,29.92
2019-04-07T12:17:41.499Z,17.85
2019-04-07T12:21:53.522Z,15.35
2019-04-07T12:26:14.233Z,26.50
2019-04-07T12:30:26.968Z,19.42
2019-04-07T12:34:47.708Z,11.97
2019-04-07T12:39:02.874Z,13.50
2019-04-07T12:43:15.515Z,15.13
2019-04-07T12:47:32.715Z,20.30
2019-04-07T12:51:57.104Z,14.00
2019-04-07T12:56:20.090Z,19.90
2019-04-07T13:00:38.861Z,17.40
2019-04-07T13:04:44.724Z,18.17
2019-04-07T13:09:10.352Z,15.70
2019-04-07T13:13:29.519Z,17.73
2019-04-07T13:17:39.837Z,18.48
2019-04-07T13:22:15.048Z,14.58
2019-04-07T13:26:41.921Z,15.40
2019-04-07T13:31:04.889Z,16.73
2019-04-07T13:35:47.657Z,16.85
2019-04-07T13:40:10.588Z,13.70
2019-04-07T13:44:39.576Z,12.88
2019-04-07T13:48:58.853Z,22.60
2019-04-07T13:53:08.882Z,16.70
2019-04-07T13:57:25.995Z,18.42
2019-04-07T14:01:42.404Z,17.82
2019-04-07T14:05:56.462Z,12.15
2019-04-07T14:10:11.386Z,21.55
2019-04-07T14:14:36.244Z,11.12
2019-04-07T14:19:03.538Z,20.37
2019-04-07T14:23:42.999Z,16.70
2019-04-07T14:28:01.493Z,19.32
2019-04-07T14:32:34.700Z,12.25
2019-04-07T14:36:48.177Z,14.33
2019-04-07T14:41:05.378Z,14.73
2019-04-07T14:45:24.768Z,15.90
2019-04-07T14:49:57.586Z,12.55
2019-04-07T14:54:20.378Z,18.20
2019-04-07T14:58:48.499Z,18.87
2019-04-07T15:02:51.597Z,14.07
2019-04-07T15:07:16.210Z,16.87
2019-04-07T15:11:32.302Z,18.27
2019-04-07T15:15:36.999Z,17.75
2019-04-07T15:19:41.660Z,16.20
2019-04-07T15:23:47.346Z,14.95
2019-04-07T15:27:57.747Z,25.32
2019-04-07T15:31:59.777Z,18.10
2019-04-07T15:36:07.972Z,21.95
2019-04-07T15:40:12.020Z,45.03
2019-04-07T15:44:17.381Z,14.13
2019-04-07T15:48:25.813Z,16.40
2019-04-07T15:52:30.813Z,15.35
2019-04-07T15:56:35.750Z,16.07
2019-04-07T16:00:40.902Z,15.90
2019-04-07T16:04:46.466Z,24.37
2019-04-07T16:08:51.550Z,16.05
2019-04-07T16:12:59.299Z,14.68
2019-04-07T16:17:05.674Z,18.57
2019-04-07T16:21:12.213Z,17.85
2019-04-07T16:25:17.631Z,15.40
2019-04-07T16:29:22.334Z,17.65
2019-04-07T16:33:27.326Z,17.73
2019-04-07T16:37:33.473Z,19.55
2019-04-07T16:41:39.195Z,20.10
2019-04-07T16:45:45.840Z,15.38
2019-04-07T16:49:50.479Z,16.70
2019-04-07T16:53:55.146Z,17.27
2019-04-07T16:58:02.007Z,17.07
2019-04-07T17:02:06.678Z,21.40
2019-04-07T17:06:12.391Z,19.17
2019-04-07T17:10:18.506Z,21.87
2019-04-07T17:14:23.783Z,20.23
2019-04-07T17:18:38.958Z,15.38
2019-04-07T17:22:47.621Z,19.10
2019-04-07T17:26:51.734Z,29.40
2019-04-07T17:30:59.038Z,41.95
2019-04-07T17:35:07.346Z,23.20
2019-04-07T17:39:46.755Z,20.37
2019-04-07T17:44:01.019Z,28.17
2019-04-07T17:48:24.392Z,25.57
2019-04-07T17:52:42.473Z,24.07
2019-04-07T17:57:03.807Z,28.50
2019-04-07T18:01:23.807Z,22.20
2019-04-07T18:05:35.449Z,29.92
2019-04-07T18:09:54.385Z,26.73
2019-04-07T18:14:28.315Z,28.73
2019-04-07T18:19:03.847Z,47.78
2019-04-07T18:23:30.071Z,43.33
2019-04-07T18:28:09.324Z,42.88
2019-04-07T18:32:32.937Z,21.02
2019-04-07T18:36:50.845Z,31.33
2019-04-07T18:41:12.504Z,27.65
2019-04-07T18:45:54.796Z,24.95
2019-04-07T18:50:19.833Z,23.03
2019-04-07T18:54:47.579Z,30.65
2019-04-07T18:59:11.710Z,28.00
2019-04-07T19:03:28.587Z,25.23
2019-04-07T19:07:48.553Z,29.70
2019-04-07T19:12:05.883Z,24.45
2019-04-07T19:16:26.509Z,22.52
2019-04-07T19:20:48.011Z,19.90
2019-04-07T19:25:11.196Z,34.58
2019-04-07T19:29:19.914Z,31.82
2019-04-07T19:33:43.944Z,22.13
2019-04-07T19:38:06.890Z,19.02
2019-04-07T19:42:49.206Z,16.82
2019-04-07T19:47:16.278Z,22.75
2019-04-07T19:51:48.316Z,20.48
2019-04-07T19:56:12.331Z,20.27
2019-04-07T20:00:28.914Z,16.02
2019-04-07T20:04:53.698Z,16.82
2019-04-07T20:09:17.827Z,19.85
2019-04-07T20:13:41.055Z,21.80
2019-04-07T20:18:01.127Z,18.35
2019-04-07T20:22:25.680Z,19.27
2019-04-07T20:26:41.212Z,21.57
2019-04-07T20:31:02.542Z,24.67
2019-04-07T20:35:24.713Z,24.90
2019-04-07T20:39:35.762Z,22.65
2019-04-07T20:43:54.602Z,23.80
2019-04-07T20:48:25.708Z,38.67
2019-04-07T20:52:50.408Z,35.30
2019-04-07T20:57:09.642Z,27.30
2019-04-07T21:01:36.622Z,21.23
2019-04-07T21:05:55.921Z,26.02
2019-04-07T21:10:20.188Z,25.08
2019-04-07T21:14:43.296Z,28.73
2019-04-07T21:19:02.492Z,25.23
2019-04-07T21:23:27.630Z,27.58
2019-04-07T21:27:38.723Z,30.02
2019-04-07T21:32:04.883Z,24.60
2019-04-07T21:36:30.086Z,22.98
2019-04-07T21:40:52.749Z,29.07
2019-04-07T21:45:29.176Z,21.62
2019-04-07T21:49:32.758Z,25.68
2019-04-07T21:54:02.181Z,26.35
2019-04-07T21:58:14.502Z,21.40
2019-04-07T22:02:42.995Z,22.30
2019-04-07T22:07:03.641Z,24.00
2019-04-07T22:11:09.211Z,24.57
2019-04-07T22:15:15.289Z,22.27
2019-04-07T22:19:20.577Z,22.73
2019-04-07T22:23:25.327Z,26.05
2019-04-07T22:27:30.574Z,30.37
2019-04-07T22:31:51.489Z,34.60
2019-04-07T22:35:57.492Z,26.77
2019-04-07T22:40:03.379Z,26.80
2019-04-07T22:44:09.174Z,23.80
2019-04-07T22:48:14.225Z,23.60
2019-04-07T22:52:19.016Z,25.45
2019-04-07T22:56:25.205Z,28.98
2019-04-07T23:00:30.793Z,23.50
2019-04-07T23:04:36.373Z,23.30
2019-04-07T23:08:42.082Z,23.18
2019-04-07T23:12:47.648Z,25.25
2019-04-07T23:16:52.702Z,24.07
2019-04-07T23:20:57.419Z,24.92
2019-04-07T23:25:02.293Z,24.90
2019-04-07T23:29:07.842Z,27.95
2019-04-07T23:33:12.952Z,23.45
2019-04-07T23:37:18.400Z,33.13
2019-04-07T23:41:23.434Z,22.85
2019-04-07T23:45:28.103Z,23.42
2019-04-07T23:49:32.749Z,25.57
2019-04-07T23:54:24.809Z,24.60
2019-04-07T23:58:29.548Z,23.15
